Time;durP1;ratioP1;P1;durP2;ratioP2;P2;SDS_P1;SDS_P2;PMS_P1;PMS_P2;Temp;Humidity;BMP_temperature;BMP_pressure;BME280_temperature;BME280_humidity;BME280_pressure;Samples;Min_cycle;Max_cycle;Signal;HPM_P1;HPM_P2
2024/02/25 00:02:48;;;;;;;;;;;;;;;5.71;100.00;94726.22;10360335;28;1901;-65
2024/02/25 00:07:51;;;;;;;;;;;;;;;5.78;100.00;94734.72;10351865;28;1995;-65
2024/02/25 00:12:53;;;;;;;;;;;;;;;5.86;100.00;94747.53;10347650;28;2202;-64
2024/02/25 00:17:56;;;;;;;;;;;;;;;5.85;100.00;94748.63;10351624;28;3814;-62
2024/02/25 00:22:58;;;;;;;;;;;;;;;5.85;100.00;94743.28;10359833;28;2015;-64
2024/02/25 00:28:01;;;;;;;;;;;;;;;5.83;100.00;94752.59;10359889;28;2553;-64
2024/02/25 00:33:03;;;;;;;;;;;;;;;5.89;100.00;94768.34;10354923;28;2062;-65
2024/02/25 00:38:06;;;;;;;;;;;;;;;5.73;100.00;94766.75;10357011;28;1979;-66
2024/02/25 00:43:08;;;;;;;;;;;;;;;5.69;100.00;94771.81;10356369;28;2085;-63
2024/02/25 00:48:12;;;;;;;;;;;;;;;5.62;100.00;94765.16;10352797;28;2009;-62
2024/02/25 00:53:16;;;;;;;;;;;;;;;5.61;100.00;94769.69;10353284;28;2157;-64
2024/02/25 00:58:19;;;;;;;;;;;;;;;5.56;100.00;94769.69;10348619;28;2070;-63
2024/02/25 01:03:23;;;;;;;;;;;;;;;5.62;100.00;94770.47;10351337;28;2135;-63
2024/02/25 01:08:25;;;;;;;;;;;;;;;5.59;100.00;94763.81;10348391;28;2388;-60
2024/02/25 01:13:28;;;;;;;;;;;;;;;5.56;100.00;94764.34;10342561;28;2230;-62
2024/02/25 01:18:31;;;;;;;;;;;;;;;5.46;100.00;94771.53;10343273;28;2118;-63
2024/02/25 01:23:34;;;;;;;;;;;;;;;5.42;100.00;94758.75;10351600;28;2199;-64
2024/02/25 01:28:36;;;;;;;;;;;;;;;5.33;100.00;94752.31;10346666;28;2345;-63
2024/02/25 01:33:39;;;;;;;;;;;;;;;5.40;100.00;94758.19;10354445;28;2050;-64
2024/02/25 01:38:41;;;;;;;;;;;;;;;5.40;100.00;94758.19;10351402;28;2231;-63
2024/02/25 01:43:44;;;;;;;;;;;;;;;5.39;100.00;94759.25;10348415;28;1970;-63
2024/02/25 01:48:50;;;;;;;;;;;;;;;5.29;100.00;94761.94;10353120;28;2002;-63
2024/02/25 01:53:53;;;;;;;;;;;;;;;5.30;100.00;94763.53;10358161;28;2317;-63
2024/02/25 01:58:56;;;;;;;;;;;;;;;5.31;100.00;94770.47;10355839;28;2033;-63
2024/02/25 02:03:59;;;;;;;;;;;;;;;5.28;100.00;94771.00;10353318;28;2234;-64
2024/02/25 02:09:01;;;;;;;;;;;;;;;5.25;100.00;94766.19;10360146;28;2093;-63
2024/02/25 02:14:04;;;;;;;;;;;;;;;5.17;100.00;94764.03;10348659;28;2176;-63
2024/02/25 02:19:07;;;;;;;;;;;;;;;5.20;100.00;94754.72;10349279;28;2165;-63
2024/02/25 02:24:12;;;;;;;;;;;;;;;5.17;100.00;94747.28;10348530;28;2037;-63
2024/02/25 02:29:14;;;;;;;;;;;;;;;5.17;100.00;94747.28;10350724;28;1957;-62
2024/02/25 02:34:17;;;;;;;;;;;;;;;5.16;100.00;94743.81;10353326;28;2256;-62
2024/02/25 02:39:19;;;;;;;;;;;;;;;5.23;100.00;94741.69;10343173;28;2306;-62
2024/02/25 02:44:23;;;;;;;;;;;;;;;5.20;100.00;94742.19;10348134;28;1982;-69
2024/02/25 02:49:25;;;;;;;;;;;;;;;5.14;100.00;94727.25;10348699;28;2062;-66
2024/02/25 02:54:28;;;;;;;;;;;;;;;5.12;100.00;94743.53;10342809;28;2010;-66
2024/02/25 02:59:30;;;;;;;;;;;;;;;5.11;100.00;94749.13;10350895;28;2095;-74
2024/02/25 03:04:33;;;;;;;;;;;;;;;5.07;100.00;94748.03;10356421;28;2215;-61
2024/02/25 03:09:35;;;;;;;;;;;;;;;5.09;100.00;94756.56;10354166;28;2113;-63
2024/02/25 03:14:39;;;;;;;;;;;;;;;5.13;100.00;94752.31;10348739;28;2545;-64
2024/02/25 03:19:42;;;;;;;;;;;;;;;5.11;100.00;94754.44;10345363;28;2074;-62
2024/02/25 03:24:45;;;;;;;;;;;;;;;5.13;100.00;94757.63;10349359;28;2006;-62
2024/02/25 03:29:48;;;;;;;;;;;;;;;5.12;100.00;94750.72;10351441;28;2082;-63
2024/02/25 03:34:50;;;;;;;;;;;;;;;5.01;100.00;94775.72;10353474;28;1897;-63
2024/02/25 03:39:53;;;;;;;;;;;;;;;5.00;100.00;94779.44;10354080;28;2055;-63
2024/02/25 03:44:55;;;;;;;;;;;;;;;5.01;100.00;94789.03;10353212;28;2101;-63
2024/02/25 03:49:58;;;;;;;;;;;;;;;4.95;100.00;94782.91;10358056;28;1913;-63
2024/02/25 03:55:00;;;;;;;;;;;;;;;4.92;100.00;94787.97;10355814;28;2252;-63
2024/02/25 04:00:04;;;;;;;;;;;;;;;4.87;100.00;94778.88;10363606;28;2116;-64
2024/02/25 04:05:07;;;;;;;;;;;;;;;4.87;100.00;94775.41;10360231;28;2285;-63
2024/02/25 04:10:09;;;;;;;;;;;;;;;4.96;100.00;94773.03;10352333;28;1853;-62
2024/02/25 04:15:14;;;;;;;;;;;;;;;4.93;100.00;94768.25;10354908;28;2058;-63
2024/02/25 04:20:17;;;;;;;;;;;;;;;4.99;100.00;94767.22;10354743;28;1983;-63
2024/02/25 04:25:19;;;;;;;;;;;;;;;4.89;100.00;94760.78;10354768;28;1982;-62
2024/02/25 04:30:22;;;;;;;;;;;;;;;4.91;100.00;94765.06;10356681;28;1913;-62
2024/02/25 04:35:25;;;;;;;;;;;;;;;4.83;100.00;94769.00;10353145;28;6138;-63
2024/02/25 04:40:28;;;;;;;;;;;;;;;4.75;100.00;94770.31;10352876;28;2038;-62
2024/02/25 04:45:30;;;;;;;;;;;;;;;4.71;100.00;94766.59;10351557;28;2325;-62
2024/02/25 04:50:36;;;;;;;;;;;;;;;4.74;100.00;94763.41;10353719;28;2118;-63
2024/02/25 04:55:39;;;;;;;;;;;;;;;4.76;100.00;94763.94;10350690;28;1991;-63
2024/02/25 05:00:41;;;;;;;;;;;;;;;4.67;100.00;94760.19;10347738;28;2124;-62
2024/02/25 05:05:44;;;;;;;;;;;;;;;4.60;100.00;94762.28;10347090;28;2086;-66
2024/02/25 05:10:47;;;;;;;;;;;;;;;4.57;100.00;94768.13;10350441;28;2052;-71
2024/02/25 05:15:49;;;;;;;;;;;;;;;4.56;100.00;94769.19;10359684;28;2009;-63
2024/02/25 05:20:52;;;;;;;;;;;;;;;4.54;100.00;94756.16;10345724;28;2051;-63
2024/02/25 05:25:54;;;;;;;;;;;;;;;4.64;100.00;94758.03;10352269;28;2217;-62
2024/02/25 05:30:57;;;;;;;;;;;;;;;4.57;100.00;94754.81;10350553;28;2882;-62
2024/02/25 05:36:00;;;;;;;;;;;;;;;4.50;100.00;94759.56;10344700;28;2236;-62
2024/02/25 05:41:07;;;;;;;;;;;;;;;4.34;100.00;94751.53;10359989;28;2062;-63
2024/02/25 05:46:09;;;;;;;;;;;;;;;4.27;100.00;94750.97;10350844;28;1977;-63
2024/02/25 05:51:12;;;;;;;;;;;;;;;4.35;100.00;94744.34;10348557;28;2085;-63
2024/02/25 05:56:14;;;;;;;;;;;;;;;4.40;100.00;94744.38;10351845;28;2214;-64
2024/02/25 06:01:17;;;;;;;;;;;;;;;4.38;100.00;94738.50;10353876;28;2338;-64
2024/02/25 06:06:20;;;;;;;;;;;;;;;4.28;100.00;94738.47;10351901;28;2121;-63
2024/02/25 06:11:22;;;;;;;;;;;;;;;4.17;100.00;94731.50;10353559;28;2004;-63
2024/02/25 06:16:32;;;;;;;;;;;;;;;4.15;100.00;94734.41;10349338;28;2028;-64
2024/02/25 06:21:34;;;;;;;;;;;;;;;4.16;100.00;94736.03;10351894;28;2045;-66
2024/02/25 06:26:37;;;;;;;;;;;;;;;4.20;100.00;94728.31;10351049;28;2796;-64
2024/02/25 06:31:39;;;;;;;;;;;;;;;4.18;100.00;94720.59;10351087;28;2227;-62
2024/02/25 06:36:42;;;;;;;;;;;;;;;4.25;100.00;94720.34;10355921;28;2102;-63
2024/02/25 06:41:44;;;;;;;;;;;;;;;4.25;100.00;94720.34;10360226;28;2283;-64
2024/02/25 06:46:47;;;;;;;;;;;;;;;4.22;100.00;94728.88;10366631;28;1892;-63
2024/02/25 06:51:50;;;;;;;;;;;;;;;4.21;100.00;94724.63;10349577;28;2144;-63
2024/02/25 06:56:52;;;;;;;;;;;;;;;4.16;100.00;94727.25;10355404;28;2288;-63
2024/02/25 07:01:55;;;;;;;;;;;;;;;4.14;100.00;94730.16;10363104;28;1929;-63
2024/02/25 07:06:57;;;;;;;;;;;;;;;4.28;100.00;94725.97;10355073;28;2095;-63
2024/02/25 07:12:00;;;;;;;;;;;;;;;4.37;100.00;94728.13;10356084;28;2340;-62
2024/02/25 07:17:03;;;;;;;;;;;;;;;4.50;100.00;94715.13;10356013;28;2107;-63
2024/02/25 07:22:06;;;;;;;;;;;;;;;4.60;100.00;94733.00;10356709;28;2006;-63
2024/02/25 07:27:09;;;;;;;;;;;;;;;4.63;100.00;94716.50;10356504;28;2122;-63
2024/02/25 07:32:12;;;;;;;;;;;;;;;4.63;100.00;94718.38;10351770;28;2073;-63
2024/02/25 07:37:15;;;;;;;;;;;;;;;4.60;100.00;94706.41;10352372;28;2110;-63
2024/02/25 07:42:17;;;;;;;;;;;;;;;4.62;100.00;94706.94;10351949;28;1926;-65
2024/02/25 07:47:20;;;;;;;;;;;;;;;4.66;100.00;94709.88;10347821;28;1909;-63
2024/02/25 07:52:22;;;;;;;;;;;;;;;4.70;100.00;94701.09;10352793;28;2614;-63
2024/02/25 07:57:26;;;;;;;;;;;;;;;4.58;100.00;94708.50;10352508;28;2200;-63
2024/02/25 08:02:29;;;;;;;;;;;;;;;4.54;100.00;94708.25;10353561;28;2124;-63
2024/02/25 08:07:32;;;;;;;;;;;;;;;4.57;100.00;94707.69;10354503;28;1849;-62
2024/02/25 08:12:35;;;;;;;;;;;;;;;4.63;100.00;94711.19;10351487;28;2026;-63
2024/02/25 08:17:37;;;;;;;;;;;;;;;4.78;100.00;94713.09;10356449;28;2066;-63
2024/02/25 08:22:40;;;;;;;;;;;;;;;5.03;100.00;94713.16;10346389;28;2074;-64
2024/02/25 08:27:42;;;;;;;;;;;;;;;5.10;100.00;94710.22;10357425;28;2141;-63
2024/02/25 08:32:45;;;;;;;;;;;;;;;5.17;100.00;94694.78;10353529;28;2105;-63
2024/02/25 08:37:49;;;;;;;;;;;;;;;5.15;100.00;94689.72;10357516;28;1918;-64
2024/02/25 08:42:52;;;;;;;;;;;;;;;5.25;100.00;94696.91;10357781;28;2054;-62
2024/02/25 08:47:55;;;;;;;;;;;;;;;5.45;100.00;94690.78;10352755;28;2471;-63
2024/02/25 08:52:58;;;;;;;;;;;;;;;5.74;100.00;94688.34;10350780;28;2129;-63
2024/02/25 08:58:00;;;;;;;;;;;;;;;5.90;100.00;94687.25;10352265;28;2077;-63
2024/02/25 09:03:03;;;;;;;;;;;;;;;6.08;100.00;94688.56;10356348;28;1849;-64
2024/02/25 09:08:05;;;;;;;;;;;;;;;6.31;100.00;94681.03;10347934;28;2105;-67
2024/02/25 09:13:08;;;;;;;;;;;;;;;6.49;100.00;94675.88;10357321;28;1914;-64
2024/02/25 09:18:10;;;;;;;;;;;;;;;6.61;100.00;94664.06;10358959;28;2187;-67
2024/02/25 09:23:13;;;;;;;;;;;;;;;6.63;100.00;94665.38;10357591;28;1993;-71
2024/02/25 09:28:18;;;;;;;;;;;;;;;8.10;100.00;94658.03;10360326;28;1931;-69
2024/02/25 09:33:21;;;;;;;;;;;;;;;9.23;100.00;94638.59;10352695;28;1992;-69
2024/02/25 09:38:26;;;;;;;;;;;;;;;8.98;100.00;94625.59;10356488;28;2565;-69
2024/02/25 09:43:29;;;;;;;;;;;;;;;8.35;100.00;94626.69;10361010;28;1885;-66
2024/02/25 09:48:31;;;;;;;;;;;;;;;7.59;100.00;94623.78;10358456;28;1936;-63
2024/02/25 09:53:34;;;;;;;;;;;;;;;7.46;100.00;94608.38;10353900;28;2058;-65
2024/02/25 09:58:36;;;;;;;;;;;;;;;7.46;100.00;94605.72;10348986;28;2112;-64
2024/02/25 10:03:39;;;;;;;;;;;;;;;7.70;100.00;94604.94;10348990;28;2133;-64
2024/02/25 10:08:41;;;;;;;;;;;;;;;7.71;100.00;94595.84;10361147;28;2053;-65
2024/02/25 10:13:45;;;;;;;;;;;;;;;7.74;100.00;94593.38;10365762;28;2198;-64
2024/02/25 10:18:51;;;;;;;;;;;;;;;7.75;100.00;94594.97;10364962;28;2056;-64
2024/02/25 10:23:54;;;;;;;;;;;;;;;7.90;100.00;94587.88;10360098;28;2059;-67
2024/02/25 10:28:57;;;;;;;;;;;;;;;8.10;100.00;94587.63;10366814;28;2129;-66
2024/02/25 10:34:00;;;;;;;;;;;;;;;8.07;100.00;94583.63;10358348;28;2487;-64
2024/02/25 10:39:03;;;;;;;;;;;;;;;8.18;100.00;94575.50;10361661;28;1984;-64
2024/02/25 10:44:05;;;;;;;;;;;;;;;8.34;100.00;94571.53;10360655;28;2021;-64
2024/02/25 10:49:09;;;;;;;;;;;;;;;8.20;100.00;94566.06;10365965;28;2027;-66
2024/02/25 10:54:12;;;;;;;;;;;;;;;8.36;100.00;94564.03;10366587;28;1920;-65
2024/02/25 10:59:16;;;;;;;;;;;;;;;8.54;100.00;94568.59;10367035;28;2117;-65
2024/02/25 11:04:18;;;;;;;;;;;;;;;8.47;100.00;94564.69;10369159;28;1678;-64
2024/02/25 11:09:22;;;;;;;;;;;;;;;8.23;100.00;94554.00;10370949;28;1374;-69
2024/02/25 11:14:24;;;;;;;;;;;;;;;8.27;100.00;94549.66;10362767;28;3104;-68
2024/02/25 11:19:26;;;;;;;;;;;;;;;8.34;100.00;94534.84;10352078;28;1918;-70
2024/02/25 11:24:29;;;;;;;;;;;;;;;8.12;100.00;94523.91;10352962;28;1540;-63
2024/02/25 11:29:32;;;;;;;;;;;;;;;8.09;100.00;94519.94;10367223;28;1507;-64
2024/02/25 11:34:35;;;;;;;;;;;;;;;8.32;100.00;94512.09;10366537;28;1917;-63
2024/02/25 11:39:38;;;;;;;;;;;;;;;8.56;100.00;94504.81;10357662;28;1950;-64
2024/02/25 11:44:41;;;;;;;;;;;;;;;8.34;100.00;94502.72;10351272;28;1658;-65
2024/02/25 11:49:43;;;;;;;;;;;;;;;8.51;100.00;94496.06;10352955;28;1486;-62
2024/02/25 11:54:46;;;;;;;;;;;;;;;8.50;100.00;94492.59;10346149;28;1576;-64
2024/02/25 11:59:49;;;;;;;;;;;;;;;8.50;100.00;94479.19;10371488;28;1910;-63
2024/02/25 12:04:51;;;;;;;;;;;;;;;8.33;100.00;94474.34;10364974;28;1438;-63
2024/02/25 12:09:54;;;;;;;;;;;;;;;8.48;100.00;94465.31;10362330;28;2949;-65
2024/02/25 12:14:58;;;;;;;;;;;;;;;8.38;100.00;94454.75;10357839;28;1730;-64
2024/02/25 12:20:00;;;;;;;;;;;;;;;8.70;100.00;94453.19;10357822;28;1976;-64
2024/02/25 12:25:04;;;;;;;;;;;;;;;8.81;100.00;94451.91;10361399;28;1949;-63
2024/02/25 12:30:07;;;;;;;;;;;;;;;8.74;100.00;94441.59;10359374;28;1802;-65
2024/02/25 12:35:09;;;;;;;;;;;;;;;8.80;100.00;94436.94;10365417;28;1467;-64
2024/02/25 12:40:12;;;;;;;;;;;;;;;8.82;100.00;94432.06;10353244;28;1910;-64
2024/02/25 12:45:14;;;;;;;;;;;;;;;8.87;100.00;94421.25;10358675;28;1862;-64
2024/02/25 12:50:17;;;;;;;;;;;;;;;8.79;100.00;94406.66;10355707;28;2851;-64
2024/02/25 12:55:20;;;;;;;;;;;;;;;8.96;100.00;94411.44;10365107;28;1596;-63
2024/02/25 13:00:23;;;;;;;;;;;;;;;8.89;100.00;94411.84;10361827;28;1922;-65
2024/02/25 13:05:25;;;;;;;;;;;;;;;9.07;100.00;94407.50;10360828;28;1957;-63
2024/02/25 13:10:28;;;;;;;;;;;;;;;9.12;100.00;94403.94;10359812;28;1920;-67
2024/02/25 13:15:31;;;;;;;;;;;;;;;9.19;100.00;94396.28;10355587;28;1718;-63
2024/02/25 13:20:34;;;;;;;;;;;;;;;9.07;100.00;94391.41;10364791;28;1950;-64
2024/02/25 13:25:37;;;;;;;;;;;;;;;9.19;100.00;94388.22;10357718;28;1451;-64
2024/02/25 13:30:39;;;;;;;;;;;;;;;9.20;100.00;94374.53;10352946;28;1971;-65
2024/02/25 13:35:42;;;;;;;;;;;;;;;9.13;100.00;94379.50;10356969;28;2386;-64
2024/02/25 13:40:45;;;;;;;;;;;;;;;9.08;100.00;94374.22;10362392;28;1971;-64
2024/02/25 13:45:47;;;;;;;;;;;;;;;9.20;100.00;94373.72;10354994;28;1558;-64
2024/02/25 13:50:50;;;;;;;;;;;;;;;9.06;100.00;94364.91;10367523;28;1894;-64
2024/02/25 13:55:52;;;;;;;;;;;;;;;9.12;100.00;94358.34;10358993;28;1893;-64
2024/02/25 14:00:55;;;;;;;;;;;;;;;9.09;100.00;94350.88;10356363;28;2014;-65
2024/02/25 14:05:57;;;;;;;;;;;;;;;9.22;100.00;94339.38;10352179;28;2203;-66
2024/02/25 14:11:03;;;;;;;;;;;;;;;9.27;100.00;94349.19;10355054;28;1937;-62
2024/02/25 14:16:06;;;;;;;;;;;;;;;9.25;100.00;94346.03;10352981;28;2268;-64
2024/02/25 14:21:08;;;;;;;;;;;;;;;9.18;100.00;94341.06;10348740;28;2594;-71
2024/02/25 14:26:11;;;;;;;;;;;;;;;9.09;100.00;94332.91;10354724;28;2138;-64
2024/02/25 14:31:13;;;;;;;;;;;;;;;9.16;100.00;94330.66;10355896;28;2267;-63
2024/02/25 14:36:17;;;;;;;;;;;;;;;9.25;100.00;94328.06;10353285;28;2015;-70
2024/02/25 14:41:20;;;;;;;;;;;;;;;9.20;100.00;94328.16;10364383;28;2093;-71
2024/02/25 14:46:23;;;;;;;;;;;;;;;9.34;100.00;94320.09;10363939;28;2096;-63
2024/02/25 14:51:25;;;;;;;;;;;;;;;9.37;100.00;94319.50;10360568;28;2063;-64
2024/02/25 14:56:28;;;;;;;;;;;;;;;9.17;100.00;94318.84;10369055;28;1907;-69
2024/02/25 15:01:30;;;;;;;;;;;;;;;9.06;100.00;94306.72;10368857;28;2557;-65
2024/02/25 15:06:34;;;;;;;;;;;;;;;9.07;100.00;94311.00;10355376;28;1881;-63
2024/02/25 15:11:37;;;;;;;;;;;;;;;8.98;100.00;94306.66;10365651;28;1886;-64
2024/02/25 15:16:39;;;;;;;;;;;;;;;8.93;100.00;94304.84;10379630;28;1745;-64
2024/02/25 15:21:42;;;;;;;;;;;;;;;8.84;100.00;94299.41;10375220;28;1977;-64
2024/02/25 15:26:47;;;;;;;;;;;;;;;8.76;100.00;94286.69;10369978;28;1451;-64
2024/02/25 15:31:50;;;;;;;;;;;;;;;8.79;100.00;94288.00;10367376;28;1487;-64
2024/02/25 15:36:53;;;;;;;;;;;;;;;8.84;100.00;94287.88;10361118;28;1510;-70
2024/02/25 15:41:55;;;;;;;;;;;;;;;8.83;100.00;94284.41;10366538;28;2624;-66
2024/02/25 15:46:58;;;;;;;;;;;;;;;8.77;100.00;94279.44;10359654;28;1779;-73
2024/02/25 15:52:01;;;;;;;;;;;;;;;8.76;100.00;94283.22;10361247;28;1618;-68
2024/02/25 15:57:06;;;;;;;;;;;;;;;8.68;100.00;94275.88;10351959;28;2077;-65
2024/02/25 16:02:09;;;;;;;;;;;;;;;8.62;100.00;94275.97;10352636;28;2112;-64
2024/02/25 16:07:14;;;;;;;;;;;;;;;8.62;100.00;94267.94;10356845;28;2272;-64
2024/02/25 16:12:17;;;;;;;;;;;;;;;8.51;100.00;94255.81;10356047;28;2849;-63
2024/02/25 16:17:20;;;;;;;;;;;;;;;8.43;100.00;94253.84;10350416;28;2129;-61
2024/02/25 16:22:23;;;;;;;;;;;;;;;8.36;100.00;94254.25;10358071;28;2183;-64
2024/02/25 16:27:26;;;;;;;;;;;;;;;8.25;100.00;94252.78;10354512;28;2536;-63
2024/02/25 16:32:28;;;;;;;;;;;;;;;8.20;100.00;94249.41;10355544;28;2018;-63
2024/02/25 16:37:31;;;;;;;;;;;;;;;8.02;100.00;94257.22;10358594;28;1994;-65
2024/02/25 16:42:33;;;;;;;;;;;;;;;7.88;100.00;94256.38;10366500;28;1938;-65
2024/02/25 16:47:36;;;;;;;;;;;;;;;7.78;100.00;94257.38;10360060;28;1932;-64
2024/02/25 16:52:39;;;;;;;;;;;;;;;7.70;100.00;94259.88;10365365;28;1467;-63
2024/02/25 16:57:41;;;;;;;;;;;;;;;7.50;100.00;94267.16;10354422;28;1519;-62
2024/02/25 17:02:44;;;;;;;;;;;;;;;7.32;100.00;94262.63;10354578;28;1981;-63
2024/02/25 17:07:48;;;;;;;;;;;;;;;7.14;100.00;94266.09;10380909;28;1480;-64
2024/02/25 17:12:51;;;;;;;;;;;;;;;7.01;100.00;94276.41;10366911;28;2316;-64
2024/02/25 17:17:54;;;;;;;;;;;;;;;6.87;100.00;94272.84;10362103;28;1789;-64
2024/02/25 17:22:57;;;;;;;;;;;;;;;6.81;100.00;94283.88;10362339;28;1980;-65
2024/02/25 17:28:01;;;;;;;;;;;;;;;6.71;100.00;94276.78;10355496;28;1522;-63
2024/02/25 17:33:04;;;;;;;;;;;;;;;6.59;100.00;94276.38;10356053;28;1462;-63
2024/02/25 17:38:10;;;;;;;;;;;;;;;6.48;100.00;94275.69;10349057;28;2063;-64
2024/02/25 17:43:13;;;;;;;;;;;;;;;6.37;100.00;94275.03;10364817;28;1971;-65
2024/02/25 17:48:15;;;;;;;;;;;;;;;6.37;100.00;94264.34;10364721;28;1784;-63
2024/02/25 17:53:23;;;;;;;;;;;;;;;6.20;100.00;94275.47;10366017;28;1423;-65
2024/02/25 17:58:26;;;;;;;;;;;;;;;6.12;100.00;94268.09;10368263;28;2733;-64
2024/02/25 18:03:29;;;;;;;;;;;;;;;6.08;100.00;94266.25;10365292;28;1985;-65
2024/02/25 18:08:32;;;;;;;;;;;;;;;6.01;100.00;94265.78;10352292;28;1486;-62
2024/02/25 18:13:35;;;;;;;;;;;;;;;5.95;100.00;94257.84;10356188;28;2065;-64
2024/02/25 18:18:37;;;;;;;;;;;;;;;5.84;100.00;94250.16;10375973;28;1860;-68
2024/02/25 18:23:40;;;;;;;;;;;;;;;5.70;100.00;94245.50;10365710;28;1910;-64
2024/02/25 18:28:43;;;;;;;;;;;;;;;5.64;100.00;94235.16;10377737;28;1603;-63
2024/02/25 18:33:45;;;;;;;;;;;;;;;5.56;100.00;94233.09;10375341;28;2361;-68
2024/02/25 18:38:48;;;;;;;;;;;;;;;5.46;100.00;94239.28;10378196;28;1907;-64
2024/02/25 18:43:52;;;;;;;;;;;;;;;5.33;100.00;94222.06;10378499;28;1914;-63
2024/02/25 18:48:54;;;;;;;;;;;;;;;5.26;100.00;94220.81;10373036;28;1896;-64
2024/02/25 18:53:57;;;;;;;;;;;;;;;5.17;100.00;94220.59;10356134;28;2043;-63
2024/02/25 18:59:00;;;;;;;;;;;;;;;5.09;100.00;94215.84;10379644;28;1713;-64
2024/02/25 19:04:03;;;;;;;;;;;;;;;5.00;100.00;94210.31;10357257;28;1934;-64
2024/02/25 19:09:08;;;;;;;;;;;;;;;4.87;100.00;94206.41;10358325;28;1881;-67
2024/02/25 19:14:24;;;;;;;;;;;;;;;4.81;100.00;94196.84;10359672;28;2510;-66
2024/02/25 19:19:27;;;;;;;;;;;;;;;4.76;100.00;94194.22;10359794;28;1986;-62
2024/02/25 19:24:30;;;;;;;;;;;;;;;4.65;100.00;94187.38;10359941;28;2038;-64
2024/02/25 19:29:32;;;;;;;;;;;;;;;4.50;100.00;94187.44;10365704;28;1908;-63
2024/02/25 19:34:35;;;;;;;;;;;;;;;4.54;100.00;94180.53;10367603;28;1959;-66
2024/02/25 19:39:38;;;;;;;;;;;;;;;4.43;100.00;94179.78;10356184;28;2163;-65
2024/02/25 19:44:40;;;;;;;;;;;;;;;4.31;100.00;94187.28;10365822;28;2086;-64
2024/02/25 19:49:43;;;;;;;;;;;;;;;4.24;100.00;94179.59;10372128;28;1863;-66
2024/02/25 19:54:45;;;;;;;;;;;;;;;4.15;100.00;94178.56;10365016;28;1628;-65
2024/02/25 19:59:48;;;;;;;;;;;;;;;4.07;100.00;94171.13;10366259;28;2734;-64
2024/02/25 20:04:51;;;;;;;;;;;;;;;3.97;100.00;94165.88;10354213;28;2219;-63
2024/02/25 20:09:53;;;;;;;;;;;;;;;3.91;100.00;94151.81;10354904;28;2021;-64
2024/02/25 20:14:57;;;;;;;;;;;;;;;3.85;100.00;94147.56;10356856;28;2066;-64
2024/02/25 20:20:00;;;;;;;;;;;;;;;3.85;100.00;94138.81;10355087;28;2114;-63
2024/02/25 20:25:04;;;;;;;;;;;;;;;3.89;100.00;94131.88;10358719;28;2031;-64
2024/02/25 20:30:07;;;;;;;;;;;;;;;3.79;100.00;94125.53;10355304;28;2010;-63
2024/02/25 20:35:09;;;;;;;;;;;;;;;3.74;100.00;94124.75;10368410;28;2107;-65
2024/02/25 20:40:12;;;;;;;;;;;;;;;3.73;100.00;94117.84;10360277;28;2443;-63
2024/02/25 20:45:15;;;;;;;;;;;;;;;3.59;100.00;94114.97;10352232;28;2097;-64
2024/02/25 20:50:18;;;;;;;;;;;;;;;3.59;100.00;94109.66;10353078;28;2242;-63
2024/02/25 20:55:21;;;;;;;;;;;;;;;3.67;100.00;94101.09;10374415;28;2067;-63
2024/02/25 21:00:24;;;;;;;;;;;;;;;3.52;100.00;94098.50;10356171;28;2111;-63
2024/02/25 21:05:27;;;;;;;;;;;;;;;3.45;100.00;94085.50;10352907;28;1998;-64
2024/02/25 21:10:33;;;;;;;;;;;;;;;3.45;100.00;94084.72;10353130;28;2242;-64
2024/02/25 21:15:36;;;;;;;;;;;;;;;3.45;100.00;94074.09;10353171;28;2198;-66
2024/02/25 21:20:38;;;;;;;;;;;;;;;3.46;100.00;94068.50;10354108;28;2077;-64
2024/02/25 21:25:41;;;;;;;;;;;;;;;3.40;100.00;94058.97;10358695;28;2652;-65
2024/02/25 21:30:43;;;;;;;;;;;;;;;3.45;100.00;94055.50;10358020;28;2072;-65
2024/02/25 21:35:45;;;;;;;;;;;;;;;3.41;100.00;94054.44;10365441;28;2013;-63
2024/02/25 21:40:48;;;;;;;;;;;;;;;3.31;100.00;94046.50;10367966;28;2082;-65
2024/02/25 21:45:50;;;;;;;;;;;;;;;3.23;100.00;94040.66;10359675;28;1988;-66
2024/02/25 21:50:53;;;;;;;;;;;;;;;3.23;100.00;94030.06;10356513;28;2027;-65
2024/02/25 21:55:55;;;;;;;;;;;;;;;3.32;100.00;94021.56;10351950;28;1884;-63
2024/02/25 22:00:58;;;;;;;;;;;;;;;3.28;100.00;94020.50;10354852;28;1907;-66
2024/02/25 22:06:00;;;;;;;;;;;;;;;3.23;100.00;94013.31;10364322;28;2553;-68
2024/02/25 22:11:03;;;;;;;;;;;;;;;3.17;100.00;94023.16;10367377;28;2023;-72
2024/02/25 22:16:06;;;;;;;;;;;;;;;3.06;100.00;94029.59;10362623;28;2046;-72
2024/02/25 22:21:09;;;;;;;;;;;;;;;3.03;100.00;94027.44;10362652;28;2034;-69
2024/02/25 22:26:12;;;;;;;;;;;;;;;3.04;100.00;94020.28;10359687;28;2125;-63
2024/02/25 22:31:15;;;;;;;;;;;;;;;3.06;100.00;94013.66;10363907;28;1900;-63
2024/02/25 22:36:17;;;;;;;;;;;;;;;2.97;100.00;94009.94;10362731;28;2042;-64
2024/02/25 22:41:20;;;;;;;;;;;;;;;2.96;100.00;93997.75;10360374;28;2116;-64
2024/02/25 22:46:23;;;;;;;;;;;;;;;2.91;100.00;93992.44;10355617;28;1990;-64
2024/02/25 22:51:26;;;;;;;;;;;;;;;2.77;100.00;93999.38;10359240;28;2738;-63
2024/02/25 22:56:29;;;;;;;;;;;;;;;2.75;100.00;93998.84;10365528;28;2121;-64
2024/02/25 23:01:35;;;;;;;;;;;;;;;2.69;100.00;93998.84;10363613;28;2210;-64
2024/02/25 23:06:38;;;;;;;;;;;;;;;2.63;100.00;94007.09;10361526;28;2040;-63
2024/02/25 23:11:41;;;;;;;;;;;;;;;2.75;100.00;94012.91;10360109;28;2065;-64
2024/02/25 23:16:44;;;;;;;;;;;;;;;2.68;100.00;94007.09;10358601;28;2132;-62
2024/02/25 23:21:47;;;;;;;;;;;;;;;2.63;100.00;94007.88;10358493;28;1914;-64
2024/02/25 23:26:50;;;;;;;;;;;;;;;2.67;100.00;93992.22;10371658;28;2007;-65
2024/02/25 23:31:52;;;;;;;;;;;;;;;2.63;100.00;93989.31;10363026;28;2109;-67
2024/02/25 23:36:55;;;;;;;;;;;;;;;2.61;100.00;93980.84;10363857;28;2941;-68
2024/02/25 23:41:57;;;;;;;;;;;;;;;2.52;100.00;93977.13;10363379;28;1993;-62
2024/02/25 23:47:00;;;;;;;;;;;;;;;2.59;100.00;93979.50;10358419;28;1896;-62
2024/02/25 23:52:02;;;;;;;;;;;;;;;2.42;100.00;93964.69;10359373;28;2060;-67
2024/02/25 23:57:04;;;;;;;;;;;;;;;2.43;100.00;93974.22;10355865;28;2102;-62
